sensor_id;sensor_type;location;lat;lon;timestamp;pressure;altitude;pressure_sealevel;temperature;humidity
54808;BME280;40708;50.364;7.550;2022-10-03T00:00:14;101440.72;;;11.57;100.00
54808;BME280;40708;50.364;7.550;2022-10-03T00:11:16;101458.22;;;11.40;100.00
54808;BME280;40708;50.364;7.550;2022-10-03T00:19:41;101469.59;;;11.29;100.00
54808;BME280;40708;50.364;7.550;2022-10-03T00:22:38;101472.22;;;11.26;100.00
54808;BME280;40708;50.364;7.550;2022-10-03T00:25:28;101474.78;;;11.19;100.00
54808;BME280;40708;50.364;7.550;2022-10-03T00:28:11;101478.19;;;11.12;100.00
54808;BME280;40708;50.364;7.550;2022-10-03T00:30:59;101493.16;;;11.07;100.00
54808;BME280;40708;50.364;7.550;2022-10-03T00:33:54;101499.28;;;11.01;100.00
54808;BME280;40708;50.364;7.550;2022-10-03T00:39:36;101508.94;;;10.95;100.00
54808;BME280;40708;50.364;7.550;2022-10-03T00:45:26;101514.94;;;10.83;100.00
54808;BME280;40708;50.364;7.550;2022-10-03T00:48:30;101520.00;;;10.69;100.00
54808;BME280;40708;50.364;7.550;2022-10-03T00:54:02;101524.81;;;10.41;100.00
54808;BME280;40708;50.364;7.550;2022-10-03T00:59:29;101533.41;;;10.28;100.00
54808;BME280;40708;50.364;7.550;2022-10-03T01:02:41;101527.03;;;10.20;100.00
54808;BME280;40708;50.364;7.550;2022-10-03T01:10:48;101548.66;;;9.96;100.00
54808;BME280;40708;50.364;7.550;2022-10-03T01:13:30;101557.34;;;9.89;100.00
54808;BME280;40708;50.364;7.550;2022-10-03T01:19:15;101564.13;;;9.75;100.00
54808;BME280;40708;50.364;7.550;2022-10-03T01:22:11;101564.19;;;9.78;100.00
54808;BME280;40708;50.364;7.550;2022-10-03T01:28:28;101570.94;;;9.65;100.00
54808;BME280;40708;50.364;7.550;2022-10-03T01:30:49;101579.56;;;9.53;100.00
54808;BME280;40708;50.364;7.550;2022-10-03T01:33:29;101579.41;;;9.49;100.00
54808;BME280;40708;50.364;7.550;2022-10-03T01:36:02;101579.66;;;9.59;100.00
54808;BME280;40708;50.364;7.550;2022-10-03T01:38:36;101578.78;;;9.59;100.00
54808;BME280;40708;50.364;7.550;2022-10-03T01:41:11;101584.88;;;9.55;100.00
54808;BME280;40708;50.364;7.550;2022-10-03T01:43:44;101583.03;;;9.51;100.00
54808;BME280;40708;50.364;7.550;2022-10-03T01:46:23;101583.72;;;9.44;100.00
54808;BME280;40708;50.364;7.550;2022-10-03T01:49:24;101585.31;;;9.36;100.00
54808;BME280;40708;50.364;7.550;2022-10-03T02:00:14;101572.31;;;9.11;100.00
54808;BME280;40708;50.364;7.550;2022-10-03T02:05:18;101572.69;;;8.88;100.00
54808;BME280;40708;50.364;7.550;2022-10-03T02:10:52;101554.66;;;8.74;100.00
54808;BME280;40708;50.364;7.550;2022-10-03T02:13:47;101557.59;;;8.86;100.00
54808;BME280;40708;50.364;7.550;2022-10-03T02:16:30;101561.81;;;8.78;100.00
54808;BME280;40708;50.364;7.550;2022-10-03T02:19:06;101573.19;;;8.74;100.00
54808;BME280;40708;50.364;7.550;2022-10-03T02:21:45;101570.38;;;8.68;100.00
54808;BME280;40708;50.364;7.550;2022-10-03T02:49:27;101617.69;;;8.88;100.00
54808;BME280;40708;50.364;7.550;2022-10-03T02:52:17;101621.09;;;8.84;100.00
54808;BME280;40708;50.364;7.550;2022-10-03T02:54:58;101619.00;;;8.73;100.00
54808;BME280;40708;50.364;7.550;2022-10-03T03:00:16;101613.69;;;8.71;100.00
54808;BME280;40708;50.364;7.550;2022-10-03T03:03:10;101612.78;;;8.71;100.00
54808;BME280;40708;50.364;7.550;2022-10-03T03:08:54;101621.81;;;8.79;100.00
54808;BME280;40708;50.364;7.550;2022-10-03T03:11:37;101614.69;;;8.76;100.00
54808;BME280;40708;50.364;7.550;2022-10-03T03:14:30;101609.31;;;8.73;100.00
54808;BME280;40708;50.364;7.550;2022-10-03T03:19:55;101622.44;;;8.69;100.00
54808;BME280;40708;50.364;7.550;2022-10-03T03:31:07;101634.31;;;8.52;100.00
54808;BME280;40708;50.364;7.550;2022-10-03T03:37:06;101632.09;;;8.35;100.00
54808;BME280;40708;50.364;7.550;2022-10-03T03:39:56;101636.13;;;8.23;100.00
54808;BME280;40708;50.364;7.550;2022-10-03T03:42:47;101646.84;;;8.27;100.00
54808;BME280;40708;50.364;7.550;2022-10-03T03:45:38;101647.50;;;8.20;100.00
54808;BME280;40708;50.364;7.550;2022-10-03T03:59:09;101664.16;;;8.18;100.00
54808;BME280;40708;50.364;7.550;2022-10-03T04:10:40;101664.91;;;8.42;100.00
54808;BME280;40708;50.364;7.550;2022-10-03T04:16:41;101669.91;;;8.31;100.00
54808;BME280;40708;50.364;7.550;2022-10-03T04:27:52;101672.56;;;8.64;100.00
54808;BME280;40708;50.364;7.550;2022-10-03T04:30:36;101670.91;;;8.68;100.00
54808;BME280;40708;50.364;7.550;2022-10-03T04:36:22;101678.13;;;8.73;100.00
54808;BME280;40708;50.364;7.550;2022-10-03T04:39:28;101684.34;;;8.75;100.00
54808;BME280;40708;50.364;7.550;2022-10-03T04:44:32;101674.84;;;8.82;100.00
54808;BME280;40708;50.364;7.550;2022-10-03T04:47:28;101680.25;;;8.86;100.00
54808;BME280;40708;50.364;7.550;2022-10-03T05:00:36;101667.34;;;8.98;100.00
54808;BME280;40708;50.364;7.550;2022-10-03T05:03:20;101662.94;;;8.99;100.00
54808;BME280;40708;50.364;7.550;2022-10-03T05:05:58;101666.47;;;8.99;100.00
54808;BME280;40708;50.364;7.550;2022-10-03T05:08:35;101669.00;;;8.95;100.00
54808;BME280;40708;50.364;7.550;2022-10-03T05:13:52;101670.53;;;8.85;100.00
54808;BME280;40708;50.364;7.550;2022-10-03T05:19:36;101684.50;;;8.80;100.00
54808;BME280;40708;50.364;7.550;2022-10-03T05:41:20;101697.00;;;8.87;100.00
54808;BME280;40708;50.364;7.550;2022-10-03T05:44:12;101698.66;;;8.82;100.00
54808;BME280;40708;50.364;7.550;2022-10-03T05:47:02;101711.78;;;8.79;100.00
54808;BME280;40708;50.364;7.550;2022-10-03T05:56:02;101702.63;;;8.66;100.00
54808;BME280;40708;50.364;7.550;2022-10-03T05:59:18;101710.59;;;8.68;100.00
54808;BME280;40708;50.364;7.550;2022-10-03T06:07:18;101725.41;;;8.92;100.00
54808;BME280;40708;50.364;7.550;2022-10-03T06:15:28;101721.56;;;9.13;100.00
54808;BME280;40708;50.364;7.550;2022-10-03T06:18:09;101728.59;;;9.12;100.00
54808;BME280;40708;50.364;7.550;2022-10-03T06:21:00;101732.16;;;9.13;100.00
54808;BME280;40708;50.364;7.550;2022-10-03T06:24:04;101734.06;;;9.18;100.00
54808;BME280;40708;50.364;7.550;2022-10-03T06:26:54;101736.72;;;9.20;100.00
54808;BME280;40708;50.364;7.550;2022-10-03T06:29:48;101735.16;;;9.26;100.00
54808;BME280;40708;50.364;7.550;2022-10-03T06:47:29;101738.09;;;9.38;100.00
54808;BME280;40708;50.364;7.550;2022-10-03T06:52:58;101739.47;;;9.57;100.00
54808;BME280;40708;50.364;7.550;2022-10-03T06:58:38;101731.28;;;9.84;100.00
54808;BME280;40708;50.364;7.550;2022-10-03T07:04:12;101728.56;;;10.57;100.00
54808;BME280;40708;50.364;7.550;2022-10-03T07:09:28;101718.84;;;11.53;100.00
54808;BME280;40708;50.364;7.550;2022-10-03T07:12:25;101712.22;;;11.78;100.00
54808;BME280;40708;50.364;7.550;2022-10-03T07:20:30;101675.47;;;11.56;100.00
54808;BME280;40708;50.364;7.550;2022-10-03T07:32:42;101672.28;;;12.39;100.00
54808;BME280;40708;50.364;7.550;2022-10-03T07:44:57;101672.13;;;13.05;100.00
54808;BME280;40708;50.364;7.550;2022-10-03T07:53:25;101675.34;;;13.63;100.00
54808;BME280;40708;50.364;7.550;2022-10-03T07:58:38;101673.63;;;13.72;100.00
54808;BME280;40708;50.364;7.550;2022-10-03T08:04:12;101670.84;;;13.56;100.00
54808;BME280;40708;50.364;7.550;2022-10-03T08:07:27;101671.75;;;13.59;100.00
54808;BME280;40708;50.364;7.550;2022-10-03T08:10:02;101674.56;;;13.79;100.00
54808;BME280;40708;50.364;7.550;2022-10-03T08:16:14;101662.28;;;14.08;100.00
54808;BME280;40708;50.364;7.550;2022-10-03T08:19:08;101652.59;;;14.21;100.00
54808;BME280;40708;50.364;7.550;2022-10-03T08:30:03;101666.03;;;14.35;100.00
54808;BME280;40708;50.364;7.550;2022-10-03T08:35:16;101660.63;;;14.28;100.00
54808;BME280;40708;50.364;7.550;2022-10-03T08:40:46;101665.97;;;14.24;100.00
54808;BME280;40708;50.364;7.550;2022-10-03T08:43:46;101672.19;;;14.30;100.00
54808;BME280;40708;50.364;7.550;2022-10-03T08:49:18;101663.38;;;14.35;100.00
54808;BME280;40708;50.364;7.550;2022-10-03T08:52:41;101673.94;;;14.21;100.00
54808;BME280;40708;50.364;7.550;2022-10-03T09:22:22;101677.63;;;14.41;100.00
54808;BME280;40708;50.364;7.550;2022-10-03T09:39:46;101660.94;;;15.72;100.00
54808;BME280;40708;50.364;7.550;2022-10-03T09:42:43;101655.59;;;15.48;100.00
54808;BME280;40708;50.364;7.550;2022-10-03T09:48:23;101619.63;;;16.46;100.00
54808;BME280;40708;50.364;7.550;2022-10-03T09:51:13;101621.56;;;16.20;100.00
54808;BME280;40708;50.364;7.550;2022-10-03T09:56:53;101623.25;;;16.40;100.00
54808;BME280;40708;50.364;7.550;2022-10-03T10:02:43;101616.00;;;16.60;100.00
54808;BME280;40708;50.364;7.550;2022-10-03T10:11:27;101602.44;;;16.86;100.00
54808;BME280;40708;50.364;7.550;2022-10-03T10:19:50;101594.19;;;18.06;100.00
54808;BME280;40708;50.364;7.550;2022-10-03T10:28:28;101587.19;;;17.93;100.00
54808;BME280;40708;50.364;7.550;2022-10-03T10:31:48;101578.16;;;17.97;100.00
54808;BME280;40708;50.364;7.550;2022-10-03T10:42:55;101585.72;;;17.63;100.00
54808;BME280;40708;50.364;7.550;2022-10-03T11:39:43;101566.34;;;18.13;100.00
54808;BME280;40708;50.364;7.550;2022-10-03T11:42:28;101564.44;;;18.23;100.00
54808;BME280;40708;50.364;7.550;2022-10-03T11:45:04;101555.03;;;17.87;100.00
54808;BME280;40708;50.364;7.550;2022-10-03T11:47:43;101560.88;;;18.19;100.00
54808;BME280;40708;50.364;7.550;2022-10-03T11:58:53;101558.78;;;18.41;100.00
54808;BME280;40708;50.364;7.550;2022-10-03T12:01:42;101552.25;;;17.95;100.00
54808;BME280;40708;50.364;7.550;2022-10-03T12:07:59;101540.81;;;18.46;100.00
54808;BME280;40708;50.364;7.550;2022-10-03T12:11:12;101541.94;;;18.31;100.00
54808;BME280;40708;50.364;7.550;2022-10-03T12:19:30;101530.97;;;17.79;100.00
54808;BME280;40708;50.364;7.550;2022-10-03T12:22:25;101536.84;;;18.09;100.00
54808;BME280;40708;50.364;7.550;2022-10-03T12:25:01;101536.69;;;18.21;100.00
54808;BME280;40708;50.364;7.550;2022-10-03T12:27:45;101528.25;;;17.82;100.00
54808;BME280;40708;50.364;7.550;2022-10-03T12:30:16;101529.47;;;18.26;100.00
54808;BME280;40708;50.364;7.550;2022-10-03T12:32:46;101520.94;;;18.59;100.00
54808;BME280;40708;50.364;7.550;2022-10-03T12:35:24;101524.19;;;18.20;100.00
54808;BME280;40708;50.364;7.550;2022-10-03T12:43:52;101508.72;;;18.93;100.00
54808;BME280;40708;50.364;7.550;2022-10-03T12:46:38;101514.47;;;18.71;100.00
54808;BME280;40708;50.364;7.550;2022-10-03T12:49:15;101512.38;;;18.91;100.00
54808;BME280;40708;50.364;7.550;2022-10-03T12:51:54;101506.47;;;18.69;100.00
54808;BME280;40708;50.364;7.550;2022-10-03T12:54:44;101515.28;;;19.29;100.00
54808;BME280;40708;50.364;7.550;2022-10-03T12:57:37;101503.34;;;19.45;100.00
54808;BME280;40708;50.364;7.550;2022-10-03T13:17:20;101504.72;;;19.17;100.00
54808;BME280;40708;50.364;7.550;2022-10-03T13:20:00;101518.69;;;18.87;100.00
54808;BME280;40708;50.364;7.550;2022-10-03T13:22:44;101506.75;;;19.05;100.00
54808;BME280;40708;50.364;7.550;2022-10-03T13:25:18;101500.50;;;19.53;100.00
54808;BME280;40708;50.364;7.550;2022-10-03T13:27:53;101493.31;;;19.95;100.00
54808;BME280;40708;50.364;7.550;2022-10-03T13:30:29;101490.88;;;20.64;100.00
54808;BME280;40708;50.364;7.550;2022-10-03T13:33:00;101493.06;;;20.48;100.00
54808;BME280;40708;50.364;7.550;2022-10-03T13:39:18;101494.47;;;20.63;100.00
54808;BME280;40708;50.364;7.550;2022-10-03T13:42:13;101488.25;;;20.61;100.00
54808;BME280;40708;50.364;7.550;2022-10-03T13:47:25;101480.19;;;20.59;100.00
54808;BME280;40708;50.364;7.550;2022-10-03T13:49:58;101479.09;;;20.68;100.00
54808;BME280;40708;50.364;7.550;2022-10-03T13:52:35;101477.13;;;20.74;100.00
54808;BME280;40708;50.364;7.550;2022-10-03T13:55:22;101470.88;;;20.36;100.00
54808;BME280;40708;50.364;7.550;2022-10-03T14:06:12;101469.69;;;20.47;100.00
54808;BME280;40708;50.364;7.550;2022-10-03T14:14:10;101468.03;;;19.60;100.00
54808;BME280;40708;50.364;7.550;2022-10-03T14:16:49;101466.31;;;19.99;100.00
54808;BME280;40708;50.364;7.550;2022-10-03T14:19:41;101466.69;;;19.81;100.00
54808;BME280;40708;50.364;7.550;2022-10-03T14:22:32;101458.34;;;20.35;100.00
54808;BME280;40708;50.364;7.550;2022-10-03T14:25:16;101461.03;;;20.35;100.00
54808;BME280;40708;50.364;7.550;2022-10-03T14:27:52;101454.94;;;20.25;100.00
54808;BME280;40708;50.364;7.550;2022-10-03T14:30:22;101455.81;;;20.27;100.00
54808;BME280;40708;50.364;7.550;2022-10-03T14:33:17;101461.22;;;19.84;100.00
54808;BME280;40708;50.364;7.550;2022-10-03T14:36:01;101458.31;;;19.52;100.00
54808;BME280;40708;50.364;7.550;2022-10-03T14:38:54;101460.16;;;19.50;100.00
54808;BME280;40708;50.364;7.550;2022-10-03T14:44:04;101455.00;;;18.89;100.00
54808;BME280;40708;50.364;7.550;2022-10-03T14:46:37;101461.59;;;18.71;100.00
54808;BME280;40708;50.364;7.550;2022-10-03T14:49:04;101461.06;;;18.50;100.00
54808;BME280;40708;50.364;7.550;2022-10-03T14:51:47;101465.47;;;18.55;100.00
54808;BME280;40708;50.364;7.550;2022-10-03T14:54:23;101467.34;;;18.47;100.00
54808;BME280;40708;50.364;7.550;2022-10-03T14:56:51;101459.53;;;18.30;100.00
54808;BME280;40708;50.364;7.550;2022-10-03T14:59:30;101469.25;;;17.75;100.00
54808;BME280;40708;50.364;7.550;2022-10-03T15:01:59;101466.44;;;17.87;100.00
54808;BME280;40708;50.364;7.550;2022-10-03T15:04:35;101459.91;;;18.06;100.00
54808;BME280;40708;50.364;7.550;2022-10-03T15:07:03;101459.06;;;18.04;100.00
54808;BME280;40708;50.364;7.550;2022-10-03T15:12:07;101453.38;;;17.58;100.00
54808;BME280;40708;50.364;7.550;2022-10-03T15:14:36;101452.91;;;17.96;100.00
54808;BME280;40708;50.364;7.550;2022-10-03T15:17:20;101458.78;;;18.22;100.00
54808;BME280;40708;50.364;7.550;2022-10-03T15:19:54;101448.41;;;18.58;100.00
54808;BME280;40708;50.364;7.550;2022-10-03T15:24:45;101443.97;;;18.55;100.00
54808;BME280;40708;50.364;7.550;2022-10-03T15:27:21;101444.16;;;18.41;100.00
54808;BME280;40708;50.364;7.550;2022-10-03T15:29:55;101447.34;;;18.08;100.00
54808;BME280;40708;50.364;7.550;2022-10-03T15:32:24;101441.22;;;17.99;100.00
54808;BME280;40708;50.364;7.550;2022-10-03T15:34:57;101437.81;;;17.86;100.00
54808;BME280;40708;50.364;7.550;2022-10-03T15:37:28;101435.03;;;17.94;100.00
54808;BME280;40708;50.364;7.550;2022-10-03T15:40:00;101433.59;;;17.68;100.00
54808;BME280;40708;50.364;7.550;2022-10-03T15:42:31;101431.09;;;17.49;100.00
54808;BME280;40708;50.364;7.550;2022-10-03T15:45:05;101431.13;;;17.46;100.00
54808;BME280;40708;50.364;7.550;2022-10-03T15:47:35;101430.13;;;17.59;100.00
54808;BME280;40708;50.364;7.550;2022-10-03T15:50:06;101424.88;;;17.45;100.00
54808;BME280;40708;50.364;7.550;2022-10-03T15:52:42;101428.38;;;17.52;100.00
54808;BME280;40708;50.364;7.550;2022-10-03T15:55:17;101418.78;;;17.33;100.00
54808;BME280;40708;50.364;7.550;2022-10-03T15:57:47;101417.94;;;17.29;100.00
54808;BME280;40708;50.364;7.550;2022-10-03T16:00:20;101419.88;;;17.15;100.00
54808;BME280;40708;50.364;7.550;2022-10-03T16:02:51;101410.28;;;16.96;100.00
54808;BME280;40708;50.364;7.550;2022-10-03T16:05:21;101412.13;;;16.89;100.00
54808;BME280;40708;50.364;7.550;2022-10-03T16:07:58;101414.03;;;16.77;100.00
54808;BME280;40708;50.364;7.550;2022-10-03T16:10:38;101411.50;;;16.60;100.00
54808;BME280;40708;50.364;7.550;2022-10-03T16:13:26;101416.88;;;16.55;100.00
54808;BME280;40708;50.364;7.550;2022-10-03T16:16:11;101415.09;;;16.59;100.00
54808;BME280;40708;50.364;7.550;2022-10-03T16:21:28;101413.56;;;16.22;100.00
54808;BME280;40708;50.364;7.550;2022-10-03T16:23:56;101418.94;;;16.19;100.00
54808;BME280;40708;50.364;7.550;2022-10-03T16:26:28;101417.31;;;15.98;100.00
54808;BME280;40708;50.364;7.550;2022-10-03T16:29:10;101417.38;;;15.83;100.00
54808;BME280;40708;50.364;7.550;2022-10-03T16:31:59;101413.97;;;15.60;100.00
54808;BME280;40708;50.364;7.550;2022-10-03T16:34:27;101411.31;;;15.54;100.00
54808;BME280;40708;50.364;7.550;2022-10-03T16:36:55;101411.34;;;15.34;100.00
54808;BME280;40708;50.364;7.550;2022-10-03T16:39:28;101411.41;;;15.22;100.00
54808;BME280;40708;50.364;7.550;2022-10-03T16:41:55;101414.09;;;15.10;100.00
54808;BME280;40708;50.364;7.550;2022-10-03T16:44:39;101425.72;;;14.94;100.00
54808;BME280;40708;50.364;7.550;2022-10-03T16:47:08;101426.63;;;14.77;100.00
54808;BME280;40708;50.364;7.550;2022-10-03T16:49:39;101424.88;;;14.67;100.00
54808;BME280;40708;50.364;7.550;2022-10-03T16:52:33;101429.31;;;14.59;100.00
54808;BME280;40708;50.364;7.550;2022-10-03T16:55:47;101442.69;;;14.53;100.00
54808;BME280;40708;50.364;7.550;2022-10-03T16:57:55;101431.97;;;14.37;100.00
54808;BME280;40708;50.364;7.550;2022-10-03T17:00:36;101437.28;;;14.26;100.00
54808;BME280;40708;50.364;7.550;2022-10-03T17:03:15;101432.78;;;14.16;100.00
54808;BME280;40708;50.364;7.550;2022-10-03T17:05:44;101431.91;;;14.09;100.00
54808;BME280;40708;50.364;7.550;2022-10-03T17:08:11;101436.31;;;14.00;100.00
54808;BME280;40708;50.364;7.550;2022-10-03T17:10:39;101427.44;;;13.89;100.00
54808;BME280;40708;50.364;7.550;2022-10-03T17:13:13;101430.97;;;13.83;100.00
54808;BME280;40708;50.364;7.550;2022-10-03T17:15:47;101431.81;;;13.73;100.00
54808;BME280;40708;50.364;7.550;2022-10-03T17:20:45;101429.09;;;13.55;100.00
54808;BME280;40708;50.364;7.550;2022-10-03T17:23:32;101435.28;;;13.46;100.00
54808;BME280;40708;50.364;7.550;2022-10-03T17:26:34;101437.91;;;13.39;100.00
54808;BME280;40708;50.364;7.550;2022-10-03T17:29:18;101434.28;;;13.29;100.00
54808;BME280;40708;50.364;7.550;2022-10-03T17:34:21;101440.44;;;13.15;100.00
54808;BME280;40708;50.364;7.550;2022-10-03T17:37:07;101440.34;;;13.04;100.00
54808;BME280;40708;50.364;7.550;2022-10-03T17:48:03;101450.84;;;12.81;100.00
54808;BME280;40708;50.364;7.550;2022-10-03T17:50:58;101445.47;;;12.75;100.00
54808;BME280;40708;50.364;7.550;2022-10-03T17:53:29;101455.16;;;12.66;100.00
54808;BME280;40708;50.364;7.550;2022-10-03T17:56:16;101452.44;;;12.61;100.00
54808;BME280;40708;50.364;7.550;2022-10-03T17:58:49;101452.47;;;12.58;100.00
54808;BME280;40708;50.364;7.550;2022-10-03T18:01:38;101444.44;;;12.57;100.00
54808;BME280;40708;50.364;7.550;2022-10-03T18:04:20;101452.38;;;12.49;100.00
54808;BME280;40708;50.364;7.550;2022-10-03T18:07:03;101447.84;;;12.42;100.00
54808;BME280;40708;50.364;7.550;2022-10-03T18:09:37;101444.25;;;12.35;100.00
54808;BME280;40708;50.364;7.550;2022-10-03T18:12:28;101442.44;;;12.30;100.00
54808;BME280;40708;50.364;7.550;2022-10-03T18:21:05;101467.00;;;12.03;100.00
54808;BME280;40708;50.364;7.550;2022-10-03T18:26:26;101475.59;;;11.79;100.00
54808;BME280;40708;50.364;7.550;2022-10-03T18:29:15;101478.28;;;11.82;100.00
54808;BME280;40708;50.364;7.550;2022-10-03T18:31:42;101493.31;;;11.80;100.00
54808;BME280;40708;50.364;7.550;2022-10-03T18:34:25;101498.59;;;11.77;100.00
54808;BME280;40708;50.364;7.550;2022-10-03T18:36:54;101494.84;;;11.63;100.00
54808;BME280;40708;50.364;7.550;2022-10-03T18:39:24;101504.47;;;11.55;100.00
54808;BME280;40708;50.364;7.550;2022-10-03T18:41:54;101499.91;;;11.44;100.00
54808;BME280;40708;50.364;7.550;2022-10-03T18:44:23;101502.38;;;11.30;100.00
54808;BME280;40708;50.364;7.550;2022-10-03T18:47:00;101496.94;;;11.22;100.00
54808;BME280;40708;50.364;7.550;2022-10-03T18:49:32;101498.53;;;11.10;100.00
54808;BME280;40708;50.364;7.550;2022-10-03T18:52:05;101501.97;;;11.04;100.00
54808;BME280;40708;50.364;7.550;2022-10-03T18:54:55;101516.09;;;11.00;100.00
54808;BME280;40708;50.364;7.550;2022-10-03T18:57:57;101522.25;;;10.98;100.00
54808;BME280;40708;50.364;7.550;2022-10-03T19:00:27;101513.19;;;10.85;100.00
54808;BME280;40708;50.364;7.550;2022-10-03T19:03:05;101513.13;;;10.81;100.00
54808;BME280;40708;50.364;7.550;2022-10-03T19:05:45;101517.34;;;10.69;100.00
54808;BME280;40708;50.364;7.550;2022-10-03T19:08:28;101513.63;;;10.60;100.00
54808;BME280;40708;50.364;7.550;2022-10-03T19:19:34;101528.28;;;10.38;100.00
54808;BME280;40708;50.364;7.550;2022-10-03T19:22:06;101529.09;;;10.34;100.00
54808;BME280;40708;50.364;7.550;2022-10-03T19:24:34;101521.94;;;10.30;100.00
54808;BME280;40708;50.364;7.550;2022-10-03T19:27:05;101521.03;;;10.28;100.00
54808;BME280;40708;50.364;7.550;2022-10-03T19:29:38;101524.53;;;10.26;100.00
54808;BME280;40708;50.364;7.550;2022-10-03T19:32:17;101524.50;;;10.24;100.00
54808;BME280;40708;50.364;7.550;2022-10-03T19:34:46;101521.03;;;10.27;100.00
54808;BME280;40708;50.364;7.550;2022-10-03T19:39:55;101523.66;;;10.27;100.00
54808;BME280;40708;50.364;7.550;2022-10-03T19:42:26;101528.00;;;10.22;100.00
54808;BME280;40708;50.364;7.550;2022-10-03T19:44:55;101525.16;;;10.12;100.00
54808;BME280;40708;50.364;7.550;2022-10-03T19:47:28;101522.53;;;10.14;100.00
54808;BME280;40708;50.364;7.550;2022-10-03T19:50:20;101522.41;;;10.09;100.00
54808;BME280;40708;50.364;7.550;2022-10-03T19:52:51;101523.22;;;10.05;100.00
54808;BME280;40708;50.364;7.550;2022-10-03T19:55:20;101522.22;;;10.00;100.00
54808;BME280;40708;50.364;7.550;2022-10-03T19:57:51;101525.69;;;9.96;100.00
54808;BME280;40708;50.364;7.550;2022-10-03T20:00:24;101528.97;;;9.83;100.00
54808;BME280;40708;50.364;7.550;2022-10-03T20:03:15;101529.06;;;9.89;100.00
54808;BME280;40708;50.364;7.550;2022-10-03T20:08:38;101534.16;;;9.79;100.00
54808;BME280;40708;50.364;7.550;2022-10-03T20:11:12;101534.03;;;9.73;100.00
54808;BME280;40708;50.364;7.550;2022-10-03T20:13:45;101531.13;;;9.62;100.00
54808;BME280;40708;50.364;7.550;2022-10-03T20:16:15;101532.03;;;9.63;100.00
54808;BME280;40708;50.364;7.550;2022-10-03T20:18:43;101535.53;;;9.60;100.00
54808;BME280;40708;50.364;7.550;2022-10-03T20:21:11;101542.72;;;9.66;100.00
54808;BME280;40708;50.364;7.550;2022-10-03T20:23:39;101551.47;;;9.62;100.00
54808;BME280;40708;50.364;7.550;2022-10-03T20:26:15;101548.75;;;9.60;100.00
54808;BME280;40708;50.364;7.550;2022-10-03T20:31:23;101548.63;;;9.54;100.00
54808;BME280;40708;50.364;7.550;2022-10-03T20:33:51;101557.38;;;9.50;100.00
54808;BME280;40708;50.364;7.550;2022-10-03T20:36:23;101554.00;;;9.57;100.00
54808;BME280;40708;50.364;7.550;2022-10-03T20:41:19;101559.19;;;9.51;100.00
54808;BME280;40708;50.364;7.550;2022-10-03T20:46:40;101552.09;;;9.50;100.00
54808;BME280;40708;50.364;7.550;2022-10-03T20:51:43;101556.63;;;9.55;100.00
54808;BME280;40708;50.364;7.550;2022-10-03T20:54:33;101552.16;;;9.53;100.00
54808;BME280;40708;50.364;7.550;2022-10-03T21:05:00;101557.22;;;9.44;100.00
54808;BME280;40708;50.364;7.550;2022-10-03T21:07:36;101557.91;;;9.35;100.00
54808;BME280;40708;50.364;7.550;2022-10-03T21:10:17;101549.84;;;9.29;100.00
54808;BME280;40708;50.364;7.550;2022-10-03T21:12:50;101562.28;;;9.32;100.00
54808;BME280;40708;50.364;7.550;2022-10-03T21:15:34;101561.28;;;9.28;100.00
54808;BME280;40708;50.364;7.550;2022-10-03T21:18:01;101567.25;;;9.20;100.00
54808;BME280;40708;50.364;7.550;2022-10-03T21:20:37;101559.16;;;9.12;100.00
54808;BME280;40708;50.364;7.550;2022-10-03T21:23:12;101557.25;;;9.07;100.00
54808;BME280;40708;50.364;7.550;2022-10-03T21:25:39;101554.44;;;9.01;100.00
54808;BME280;40708;50.364;7.550;2022-10-03T21:28:19;101551.69;;;8.96;100.00
54808;BME280;40708;50.364;7.550;2022-10-03T21:33:37;101554.09;;;8.87;100.00
54808;BME280;40708;50.364;7.550;2022-10-03T21:36:11;101549.78;;;8.90;100.00
54808;BME280;40708;50.364;7.550;2022-10-03T21:38:41;101546.00;;;8.81;100.00
54808;BME280;40708;50.364;7.550;2022-10-03T21:42:14;101547.50;;;8.70;100.00
54808;BME280;40708;50.364;7.550;2022-10-03T21:44:25;101546.53;;;8.66;100.00
54808;BME280;40708;50.364;7.550;2022-10-03T21:47:09;101551.56;;;8.57;100.00
54808;BME280;40708;50.364;7.550;2022-10-03T21:49:54;101548.00;;;8.55;100.00
54808;BME280;40708;50.364;7.550;2022-10-03T21:52:26;101543.47;;;8.51;100.00
54808;BME280;40708;50.364;7.550;2022-10-03T21:55:30;101540.75;;;8.48;100.00
54808;BME280;40708;50.364;7.550;2022-10-03T21:58:13;101541.53;;;8.44;100.00
54808;BME280;40708;50.364;7.550;2022-10-03T22:06:27;101542.38;;;8.43;100.00
54808;BME280;40708;50.364;7.550;2022-10-03T22:09:01;101542.06;;;8.31;100.00
54808;BME280;40708;50.364;7.550;2022-10-03T22:14:12;101522.47;;;8.24;100.00
54808;BME280;40708;50.364;7.550;2022-10-03T22:19:21;101533.91;;;8.23;100.00
54808;BME280;40708;50.364;7.550;2022-10-03T22:22:11;101520.53;;;8.19;100.00
54808;BME280;40708;50.364;7.550;2022-10-03T22:30:00;101517.72;;;8.13;100.00
54808;BME280;40708;50.364;7.550;2022-10-03T22:38:03;101504.94;;;7.97;100.00
54808;BME280;40708;50.364;7.550;2022-10-03T22:40:29;101511.03;;;7.93;100.00
54808;BME280;40708;50.364;7.550;2022-10-03T22:42:56;101508.91;;;7.81;100.00
54808;BME280;40708;50.364;7.550;2022-10-03T22:45:24;101501.06;;;7.83;100.00
54808;BME280;40708;50.364;7.550;2022-10-03T22:47:54;101506.47;;;7.87;100.00
54808;BME280;40708;50.364;7.550;2022-10-03T22:50:26;101504.66;;;7.86;100.00
54808;BME280;40708;50.364;7.550;2022-10-03T22:52:53;101493.91;;;7.80;100.00
54808;BME280;40708;50.364;7.550;2022-10-03T22:55:22;101503.50;;;7.76;100.00